createdAt,value
2018-04-15T00:00:18.304Z,15.30
2018-04-15T00:02:45.756Z,15.30
2018-04-15T00:05:13.189Z,15.30
2018-04-15T00:07:40.666Z,15.30
2018-04-15T00:10:08.091Z,15.30
2018-04-15T00:12:35.538Z,15.20
2018-04-15T00:15:02.971Z,15.20
2018-04-15T00:17:31.180Z,15.10
2018-04-15T00:19:58.606Z,15.00
2018-04-15T00:22:26.075Z,15.10
2018-04-15T00:24:53.528Z,15.10
2018-04-15T00:27:20.958Z,15.10
2018-04-15T00:29:48.391Z,15.00
2018-04-15T00:32:15.842Z,15.00
2018-04-15T00:34:43.308Z,15.00
2018-04-15T00:37:10.741Z,15.00
2018-04-15T00:39:38.184Z,15.00
2018-04-15T00:42:05.624Z,15.00
2018-04-15T00:44:33.828Z,15.00
2018-04-15T00:47:01.285Z,14.90
2018-04-15T00:49:28.730Z,15.00
2018-04-15T00:51:56.184Z,15.00
2018-04-15T00:54:23.607Z,15.00
2018-04-15T00:56:51.819Z,14.90
2018-04-15T00:59:19.258Z,14.80
2018-04-15T01:01:46.719Z,14.90
2018-04-15T01:04:14.364Z,14.80
2018-04-15T01:06:41.810Z,14.80
2018-04-15T01:09:09.243Z,14.70
2018-04-15T01:11:36.759Z,14.70
2018-04-15T01:14:04.179Z,14.70
2018-04-15T01:16:31.618Z,14.70
2018-04-15T01:18:59.066Z,14.60
2018-04-15T01:21:26.527Z,14.50
2018-04-15T01:23:53.967Z,14.30
2018-04-15T01:26:21.404Z,14.20
2018-04-15T01:28:48.855Z,14.10
2018-04-15T01:31:16.295Z,14.00
2018-04-15T01:33:44.520Z,13.90
2018-04-15T01:36:11.978Z,13.80
2018-04-15T01:38:39.426Z,13.80
2018-04-15T01:41:06.878Z,13.80
2018-04-15T01:43:34.303Z,13.80
2018-04-15T01:46:01.749Z,13.80
2018-04-15T01:48:30.136Z,13.80
2018-04-15T01:50:57.602Z,13.80
2018-04-15T01:53:25.035Z,13.90
2018-04-15T01:55:52.490Z,13.90
2018-04-15T01:58:19.940Z,13.90
2018-04-15T02:00:47.385Z,13.90
2018-04-15T02:03:14.815Z,13.90
2018-04-15T02:05:42.256Z,13.90
2018-04-15T02:08:09.743Z,14.00
2018-04-15T02:10:37.288Z,14.00
2018-04-15T02:13:04.741Z,14.10
2018-04-15T02:15:32.183Z,14.10
2018-04-15T02:17:59.622Z,14.10
2018-04-15T02:20:27.071Z,14.00
2018-04-15T02:22:55.266Z,14.10
2018-04-15T02:25:22.779Z,14.00
2018-04-15T02:27:50.223Z,14.20
2018-04-15T02:30:17.679Z,14.20
2018-04-15T02:32:45.314Z,14.20
2018-04-15T02:35:12.736Z,14.20
2018-04-15T02:37:40.162Z,14.20
2018-04-15T02:40:07.632Z,14.20
2018-04-15T02:42:35.082Z,14.20
2018-04-15T02:45:02.547Z,14.20
2018-04-15T02:47:29.990Z,14.20
2018-04-15T02:49:57.427Z,14.10
2018-04-15T02:52:24.882Z,14.20
2018-04-15T02:54:52.337Z,14.20
2018-04-15T02:57:19.803Z,14.20
2018-04-15T02:59:47.264Z,14.10
2018-04-15T03:02:14.711Z,14.10
2018-04-15T03:04:42.140Z,14.00
2018-04-15T03:07:09.624Z,14.00
2018-04-15T03:09:37.091Z,14.00
2018-04-15T03:12:04.538Z,13.90
2018-04-15T03:14:32.092Z,13.90
2018-04-15T03:16:59.514Z,13.80
2018-04-15T03:19:26.962Z,13.70
2018-04-15T03:21:54.403Z,13.60
2018-04-15T03:24:21.855Z,13.50
2018-04-15T03:26:49.314Z,13.40
2018-04-15T03:29:16.759Z,13.50
2018-04-15T03:31:44.235Z,13.50
2018-04-15T03:34:11.670Z,13.50
2018-04-15T03:36:39.128Z,13.40
2018-04-15T03:39:06.574Z,13.30
2018-04-15T03:41:34.002Z,13.20
2018-04-15T03:44:01.465Z,13.10
2018-04-15T03:46:28.930Z,12.90
2018-04-15T03:48:56.355Z,12.70
2018-04-15T03:51:24.579Z,12.70
2018-04-15T03:53:52.045Z,12.60
2018-04-15T03:56:19.467Z,12.60
2018-04-15T03:58:46.908Z,12.60
2018-04-15T04:01:14.339Z,12.60
2018-04-15T04:03:41.782Z,12.70
2018-04-15T04:06:09.213Z,12.70
2018-04-15T04:08:36.631Z,12.80
2018-04-15T04:11:04.857Z,12.50
2018-04-15T04:13:32.299Z,12.40
2018-04-15T04:15:59.799Z,12.50
2018-04-15T04:18:39.231Z,12.40
2018-04-15T04:21:18.567Z,12.40
2018-04-15T04:23:57.881Z,12.40
2018-04-15T04:26:25.324Z,12.40
2018-04-15T04:28:52.750Z,12.50
2018-04-15T04:31:20.194Z,12.50
2018-04-15T04:33:48.399Z,12.50
2018-04-15T04:36:15.830Z,12.40
2018-04-15T04:38:44.031Z,12.30
2018-04-15T04:41:11.466Z,12.30
2018-04-15T04:43:39.681Z,12.20
2018-04-15T04:46:07.106Z,12.10
2018-04-15T04:48:34.543Z,12.10
2018-04-15T04:51:01.997Z,12.10
2018-04-15T04:53:29.439Z,12.20
2018-04-15T04:55:56.875Z,12.20
2018-04-15T04:58:24.330Z,12.20
2018-04-15T05:00:51.767Z,12.10
2018-04-15T05:03:19.210Z,12.10
2018-04-15T05:05:46.640Z,12.20
2018-04-15T05:08:14.855Z,12.30
2018-04-15T05:10:42.303Z,12.20
2018-04-15T05:13:09.759Z,12.40
2018-04-15T05:15:37.210Z,12.40
2018-04-15T05:18:04.622Z,12.50
2018-04-15T05:20:32.071Z,12.60
2018-04-15T05:22:59.519Z,12.60
2018-04-15T05:25:26.957Z,12.60
2018-04-15T05:27:54.382Z,12.60
2018-04-15T05:30:22.589Z,12.70
2018-04-15T05:32:50.019Z,12.60
2018-04-15T05:35:17.503Z,12.80
2018-04-15T05:37:44.951Z,12.90
2018-04-15T05:40:12.383Z,13.00
2018-04-15T05:42:39.829Z,13.00
2018-04-15T05:45:08.030Z,13.10
2018-04-15T05:47:35.619Z,13.00
2018-04-15T05:50:03.770Z,13.20
2018-04-15T05:52:31.215Z,13.10
2018-04-15T05:54:58.644Z,13.30
2018-04-15T05:57:26.084Z,13.40
2018-04-15T05:59:53.527Z,13.50
2018-04-15T06:02:20.968Z,13.50
2018-04-15T06:04:48.413Z,13.60
2018-04-15T06:07:15.842Z,13.70
2018-04-15T06:09:44.239Z,13.90
2018-04-15T06:12:11.671Z,13.80
2018-04-15T06:14:39.137Z,14.00
2018-04-15T06:17:06.567Z,14.10
2018-04-15T06:19:34.016Z,14.20
2018-04-15T06:22:01.459Z,14.30
2018-04-15T06:24:28.906Z,14.30
2018-04-15T06:26:56.342Z,14.30
2018-04-15T06:29:23.782Z,14.50
2018-04-15T06:31:51.995Z,14.60
2018-04-15T06:34:19.410Z,14.50
2018-04-15T06:36:46.914Z,14.60
2018-04-15T06:39:14.311Z,14.70
2018-04-15T06:41:42.534Z,14.80
2018-04-15T06:44:09.967Z,14.80
2018-04-15T06:46:37.415Z,14.90
2018-04-15T06:49:04.844Z,15.00
2018-04-15T06:51:32.288Z,15.20
2018-04-15T06:53:59.728Z,15.30
2018-04-15T06:56:27.158Z,15.40
2018-04-15T06:58:54.604Z,15.60
2018-04-15T07:01:22.038Z,15.70
2018-04-15T07:03:49.475Z,15.90
2018-04-15T07:06:17.516Z,16.00
2018-04-15T07:08:44.960Z,16.20
2018-04-15T07:11:12.391Z,16.40
2018-04-15T07:13:40.606Z,16.60
2018-04-15T07:16:08.035Z,16.60
2018-04-15T07:18:35.470Z,16.70
2018-04-15T07:21:02.890Z,16.80
2018-04-15T07:23:30.332Z,16.80
2018-04-15T07:25:57.770Z,16.90
2018-04-15T07:28:25.199Z,17.00
2018-04-15T07:30:53.402Z,17.20
2018-04-15T07:33:20.852Z,17.20
2018-04-15T07:35:48.274Z,17.40
2018-04-15T07:38:15.755Z,17.60
2018-04-15T07:40:43.199Z,17.70
2018-04-15T07:43:10.622Z,17.80
2018-04-15T07:45:38.059Z,17.90
2018-04-15T07:48:05.497Z,18.00
2018-04-15T07:50:32.996Z,18.10
2018-04-15T07:53:01.128Z,18.40
2018-04-15T07:55:28.574Z,18.30
2018-04-15T07:57:56.031Z,18.50
2018-04-15T08:00:23.530Z,18.70
2018-04-15T08:02:50.967Z,18.90
2018-04-15T08:05:18.387Z,19.00
2018-04-15T08:07:46.615Z,19.40
2018-04-15T08:10:14.019Z,19.30
2018-04-15T08:12:41.471Z,19.60
2018-04-15T08:15:08.916Z,19.80
2018-04-15T08:17:36.356Z,20.00
2018-04-15T08:20:03.792Z,20.10
2018-04-15T08:22:31.216Z,20.20
2018-04-15T08:24:58.654Z,20.30
2018-04-15T08:27:26.091Z,20.30
2018-04-15T08:29:53.518Z,20.30
2018-04-15T08:32:20.963Z,20.30
2018-04-15T08:34:48.398Z,20.30
2018-04-15T08:37:16.606Z,20.20
2018-04-15T08:39:44.031Z,20.20
2018-04-15T08:42:11.481Z,20.30
2018-04-15T08:44:38.902Z,20.30
2018-04-15T08:47:06.338Z,20.30
2018-04-15T08:49:33.779Z,20.30
2018-04-15T08:52:01.215Z,20.40
2018-04-15T08:54:29.472Z,20.60
2018-04-15T08:56:56.843Z,20.60
2018-04-15T08:59:24.283Z,20.80
2018-04-15T09:01:51.714Z,20.90
2018-04-15T09:04:19.159Z,21.10
2018-04-15T09:06:46.667Z,21.20
2018-04-15T09:09:14.883Z,21.50
2018-04-15T09:11:42.324Z,21.40
2018-04-15T09:14:09.796Z,21.50
2018-04-15T09:16:37.216Z,21.50
2018-04-15T09:19:04.638Z,21.40
2018-04-15T09:21:32.087Z,21.40
2018-04-15T09:23:59.530Z,21.40
2018-04-15T09:26:26.998Z,21.40
2018-04-15T09:28:54.418Z,21.50
2018-04-15T09:31:21.854Z,21.60
2018-04-15T09:33:50.053Z,22.10
2018-04-15T09:36:17.491Z,22.00
2018-04-15T09:38:44.930Z,22.30
2018-04-15T09:41:12.361Z,22.40
2018-04-15T09:43:39.798Z,22.50
2018-04-15T09:46:07.222Z,22.60
2018-04-15T09:48:34.658Z,22.70
2018-04-15T09:51:02.114Z,22.70
2018-04-15T09:53:29.558Z,22.80
2018-04-15T09:55:57.003Z,22.90
2018-04-15T09:58:24.472Z,23.10
2018-04-15T10:00:51.908Z,23.30
2018-04-15T10:03:19.326Z,23.40
2018-04-15T10:05:46.758Z,23.60
2018-04-15T10:08:14.963Z,24.30
2018-04-15T10:10:42.398Z,24.20
2018-04-15T10:13:09.863Z,24.70
2018-04-15T10:15:37.334Z,24.90
2018-04-15T10:18:04.758Z,25.20
2018-04-15T10:20:32.200Z,25.60
2018-04-15T10:22:59.647Z,25.80
2018-04-15T10:25:27.084Z,25.70
2018-04-15T10:27:54.510Z,25.70
2018-04-15T10:30:21.944Z,25.70
2018-04-15T10:32:50.139Z,25.90
2018-04-15T10:35:17.594Z,25.80
2018-04-15T10:37:45.047Z,26.00
2018-04-15T10:40:12.480Z,25.90
2018-04-15T10:42:39.906Z,25.80
2018-04-15T10:45:07.350Z,25.80
2018-04-15T10:47:34.796Z,26.00
2018-04-15T10:50:02.238Z,26.10
2018-04-15T10:52:29.666Z,26.30
2018-04-15T10:54:57.087Z,26.40
2018-04-15T10:57:24.738Z,26.60
2018-04-15T10:59:52.241Z,26.50
2018-04-15T11:02:19.627Z,26.70
2018-04-15T11:04:47.054Z,27.10
2018-04-15T11:07:14.478Z,27.30
2018-04-15T11:09:41.936Z,27.50
2018-04-15T11:12:09.398Z,27.60
2018-04-15T11:14:36.855Z,27.60
2018-04-15T11:17:04.274Z,27.60
2018-04-15T11:19:31.822Z,27.50
2018-04-15T11:21:59.254Z,27.30
2018-04-15T11:24:26.684Z,27.20
2018-04-15T11:26:54.139Z,27.10
2018-04-15T11:29:21.582Z,27.00
2018-04-15T11:31:49.021Z,26.80
2018-04-15T11:34:16.479Z,26.60
2018-04-15T11:36:43.917Z,26.30
2018-04-15T11:39:12.103Z,25.80
2018-04-15T11:41:39.559Z,25.80
2018-04-15T11:44:07.001Z,25.70
2018-04-15T11:46:34.446Z,25.70
2018-04-15T11:49:01.869Z,25.60
2018-04-15T11:51:29.369Z,25.60
2018-04-15T11:53:56.747Z,25.80
2018-04-15T11:56:24.183Z,26.10
2018-04-15T11:58:52.374Z,27.20
2018-04-15T12:01:19.817Z,27.20
2018-04-15T12:03:48.186Z,28.40
2018-04-15T12:06:15.638Z,28.30
2018-04-15T12:08:43.064Z,29.00
2018-04-15T12:11:10.518Z,30.00
2018-04-15T12:13:37.942Z,30.90
2018-04-15T12:16:05.399Z,31.40
2018-04-15T12:18:32.842Z,31.70
2018-04-15T12:21:01.046Z,32.00
2018-04-15T12:23:28.484Z,31.90
2018-04-15T12:25:55.932Z,31.90
2018-04-15T12:28:24.134Z,31.80
2018-04-15T12:30:51.592Z,31.70
2018-04-15T12:33:19.004Z,31.50
2018-04-15T12:35:46.484Z,31.20
2018-04-15T12:38:13.922Z,30.90
2018-04-15T12:40:41.351Z,30.60
2018-04-15T12:43:08.787Z,30.50
2018-04-15T12:45:36.243Z,31.00
2018-04-15T12:48:03.690Z,32.00
2018-04-15T12:50:31.129Z,33.10
2018-04-15T12:52:58.563Z,34.30
2018-04-15T12:55:26.024Z,35.20
2018-04-15T12:57:54.241Z,35.90
2018-04-15T13:00:21.682Z,35.80
2018-04-15T13:02:49.126Z,36.60
2018-04-15T13:05:16.564Z,37.50
2018-04-15T13:07:44.028Z,38.50
2018-04-15T13:10:11.624Z,38.20
2018-04-15T13:12:39.071Z,37.20
2018-04-15T13:15:06.496Z,36.20
2018-04-15T13:17:34.711Z,35.20
2018-04-15T13:20:02.154Z,35.10
2018-04-15T13:22:29.590Z,34.90
2018-04-15T13:24:57.015Z,34.50
2018-04-15T13:27:24.464Z,34.30
2018-04-15T13:29:51.895Z,34.20
2018-04-15T13:32:19.426Z,34.20
2018-04-15T13:34:46.859Z,34.10
2018-04-15T13:37:14.294Z,33.90
2018-04-15T13:39:41.744Z,33.60
2018-04-15T13:42:09.198Z,33.20
2018-04-15T13:44:36.644Z,32.60
2018-04-15T13:47:04.090Z,32.10
2018-04-15T13:49:31.508Z,31.60
2018-04-15T13:51:59.726Z,31.00
2018-04-15T13:54:27.229Z,30.90
2018-04-15T13:56:54.589Z,30.80
2018-04-15T13:59:22.030Z,30.60
2018-04-15T14:01:49.471Z,30.40
2018-04-15T14:04:16.910Z,30.20
2018-04-15T14:06:44.356Z,30.00
2018-04-15T14:09:11.802Z,29.80
2018-04-15T14:11:39.350Z,29.60
2018-04-15T14:14:06.690Z,29.40
2018-04-15T14:16:34.894Z,28.90
2018-04-15T14:19:02.338Z,28.80
2018-04-15T14:21:29.772Z,28.70
2018-04-15T14:23:57.217Z,28.50
2018-04-15T14:26:24.646Z,28.30
2018-04-15T14:28:52.104Z,28.10
2018-04-15T14:31:19.542Z,28.00
2018-04-15T14:33:46.998Z,27.90
2018-04-15T14:36:14.443Z,27.80
2018-04-15T14:38:41.880Z,27.70
2018-04-15T14:41:10.098Z,27.40
2018-04-15T14:43:37.539Z,27.30
2018-04-15T14:46:04.983Z,27.30
2018-04-15T14:48:32.434Z,27.10
2018-04-15T14:50:59.895Z,26.90
2018-04-15T14:53:27.353Z,26.80
2018-04-15T14:55:54.787Z,26.80
2018-04-15T14:58:22.247Z,26.80
2018-04-15T15:00:49.719Z,26.80
2018-04-15T15:03:17.174Z,26.80
2018-04-15T15:05:44.617Z,26.80
2018-04-15T15:08:12.050Z,26.70
2018-04-15T15:10:39.480Z,26.50
2018-04-15T15:13:06.927Z,26.40
2018-04-15T15:15:34.354Z,26.30
2018-04-15T15:18:02.555Z,26.10
2018-04-15T15:20:30.006Z,26.00
2018-04-15T15:22:57.430Z,25.90
2018-04-15T15:25:24.874Z,25.70
2018-04-15T15:27:52.316Z,25.50
2018-04-15T15:30:19.758Z,25.30
2018-04-15T15:32:47.196Z,25.10
2018-04-15T15:35:14.642Z,25.00
2018-04-15T15:37:42.082Z,24.90
2018-04-15T15:40:10.293Z,24.60
2018-04-15T15:42:37.735Z,24.50
2018-04-15T15:45:05.184Z,24.50
2018-04-15T15:47:32.631Z,24.40
2018-04-15T15:50:00.065Z,24.30
2018-04-15T15:52:27.515Z,24.20
2018-04-15T15:54:54.947Z,24.10
2018-04-15T15:57:22.406Z,24.00
2018-04-15T15:59:49.839Z,23.80
2018-04-15T16:02:17.279Z,23.70
2018-04-15T16:04:45.479Z,23.30
2018-04-15T16:07:12.924Z,23.20
2018-04-15T16:09:40.372Z,23.10
2018-04-15T16:12:07.813Z,23.00
2018-04-15T16:14:35.320Z,22.80
2018-04-15T16:17:02.769Z,22.70
2018-04-15T16:19:30.226Z,22.60
2018-04-15T16:21:57.662Z,22.50
2018-04-15T16:24:25.095Z,22.40
2018-04-15T16:26:52.562Z,22.40
2018-04-15T16:29:20.015Z,22.30
2018-04-15T16:31:47.451Z,22.20
2018-04-15T16:34:15.008Z,22.20
2018-04-15T16:36:42.410Z,22.10
2018-04-15T16:39:09.857Z,22.10
2018-04-15T16:41:37.303Z,22.00
2018-04-15T16:44:04.743Z,22.00
2018-04-15T16:46:32.187Z,21.90
2018-04-15T16:48:59.631Z,21.80
2018-04-15T16:51:27.138Z,21.80
2018-04-15T16:53:54.599Z,21.70
2018-04-15T16:56:22.057Z,21.70
2018-04-15T16:58:49.503Z,21.70
2018-04-15T17:01:16.931Z,21.60
2018-04-15T17:03:44.374Z,21.60
2018-04-15T17:06:11.820Z,21.60
2018-04-15T17:08:39.252Z,21.60
2018-04-15T17:11:06.755Z,21.50
2018-04-15T17:13:34.259Z,21.40
2018-04-15T17:16:01.706Z,21.40
2018-04-15T17:18:29.142Z,21.40
2018-04-15T17:20:56.574Z,21.40
2018-04-15T17:23:24.023Z,21.40
2018-04-15T17:25:51.455Z,21.30
2018-04-15T17:28:18.923Z,21.30
2018-04-15T17:30:46.354Z,21.20
2018-04-15T17:33:13.803Z,21.30
2018-04-15T17:35:41.999Z,21.30
2018-04-15T17:38:09.483Z,21.20
2018-04-15T17:40:36.905Z,21.20
2018-04-15T17:43:04.351Z,21.20
2018-04-15T17:45:31.795Z,21.20
2018-04-15T17:47:59.222Z,21.10
2018-04-15T17:50:26.662Z,21.10
2018-04-15T17:52:54.144Z,21.10
2018-04-15T17:55:21.541Z,21.00
2018-04-15T17:57:48.986Z,21.00
2018-04-15T18:00:17.199Z,20.90
2018-04-15T18:02:44.640Z,20.90
2018-04-15T18:05:12.075Z,20.90
2018-04-15T18:07:39.515Z,20.90
2018-04-15T18:10:06.958Z,20.80
2018-04-15T18:12:34.409Z,20.80
2018-04-15T18:15:01.842Z,20.80
2018-04-15T18:17:29.375Z,20.80
2018-04-15T18:19:56.808Z,20.80
2018-04-15T18:22:24.284Z,20.70
2018-04-15T18:24:51.727Z,20.70
2018-04-15T18:27:19.173Z,20.70
2018-04-15T18:29:46.618Z,20.60
2018-04-15T18:32:14.060Z,20.60
2018-04-15T18:34:41.515Z,20.60
2018-04-15T18:37:08.959Z,20.60
2018-04-15T18:39:36.466Z,20.60
2018-04-15T18:42:03.901Z,20.60
2018-04-15T18:44:31.351Z,20.50
2018-04-15T18:46:58.786Z,20.50
2018-04-15T18:49:26.231Z,20.40
2018-04-15T18:51:53.686Z,20.40
2018-04-15T18:54:21.119Z,20.40
2018-04-15T18:56:48.562Z,20.30
2018-04-15T18:59:16.786Z,20.30
2018-04-15T19:01:44.240Z,20.20
2018-04-15T19:04:11.671Z,20.20
2018-04-15T19:06:39.119Z,20.20
2018-04-15T19:09:06.558Z,20.10
2018-04-15T19:11:34.009Z,20.10
2018-04-15T19:14:01.441Z,20.00
2018-04-15T19:16:28.900Z,19.90
2018-04-15T19:18:56.339Z,19.80
2018-04-15T19:21:23.770Z,19.70
2018-04-15T19:23:51.222Z,19.70
2018-04-15T19:26:19.424Z,19.60
2018-04-15T19:28:46.867Z,19.50
2018-04-15T19:31:14.327Z,19.60
2018-04-15T19:33:41.763Z,19.50
2018-04-15T19:36:09.202Z,19.40
2018-04-15T19:38:36.642Z,19.40
2018-04-15T19:41:04.095Z,19.40
2018-04-15T19:43:31.540Z,19.30
2018-04-15T19:45:58.983Z,19.30
2018-04-15T19:48:27.272Z,19.30
2018-04-15T19:50:54.687Z,19.30
2018-04-15T19:53:22.127Z,19.30
2018-04-15T19:55:49.560Z,19.20
2018-04-15T19:58:17.003Z,19.20
2018-04-15T20:00:44.452Z,19.10
2018-04-15T20:03:11.913Z,19.10
2018-04-15T20:05:39.342Z,19.10
2018-04-15T20:08:06.791Z,19.10
2018-04-15T20:10:34.239Z,19.10
2018-04-15T20:13:01.675Z,19.00
2018-04-15T20:15:29.115Z,19.00
2018-04-15T20:17:56.583Z,19.00
2018-04-15T20:20:24.027Z,19.00
2018-04-15T20:22:51.491Z,19.00
2018-04-15T20:25:18.927Z,19.00
2018-04-15T20:27:46.361Z,19.00
2018-04-15T20:30:13.905Z,19.00
2018-04-15T20:32:41.349Z,19.00
2018-04-15T20:35:08.790Z,19.00
2018-04-15T20:37:36.232Z,19.00
2018-04-15T20:40:03.670Z,19.00
2018-04-15T20:42:31.112Z,18.90
2018-04-15T20:44:58.555Z,19.00
2018-04-15T20:47:25.986Z,19.00
2018-04-15T20:49:54.200Z,19.00
2018-04-15T20:52:21.647Z,18.90
2018-04-15T20:54:49.085Z,19.00
2018-04-15T20:57:16.526Z,18.90
2018-04-15T20:59:43.975Z,18.80
2018-04-15T21:02:11.432Z,18.80
2018-04-15T21:04:38.874Z,18.80
2018-04-15T21:07:06.310Z,18.80
2018-04-15T21:09:33.759Z,18.80
2018-04-15T21:12:01.200Z,18.90
2018-04-15T21:14:28.648Z,18.80
2018-04-15T21:16:56.091Z,18.80
2018-04-15T21:19:24.318Z,18.80
2018-04-15T21:21:51.757Z,18.70
2018-04-15T21:24:19.189Z,18.80
2018-04-15T21:26:46.618Z,18.80
2018-04-15T21:29:14.106Z,18.70
2018-04-15T21:31:42.307Z,18.60
2018-04-15T21:34:09.748Z,18.50
2018-04-15T21:36:37.396Z,18.60
2018-04-15T21:39:07.436Z,18.60
2018-04-15T21:41:34.871Z,18.50
2018-04-15T21:44:02.343Z,18.50
2018-04-15T21:46:29.755Z,18.50
2018-04-15T21:48:57.255Z,18.40
2018-04-15T21:51:24.639Z,18.40
2018-04-15T21:53:52.083Z,18.30
2018-04-15T21:56:19.533Z,18.30
2018-04-15T21:58:46.962Z,18.20
2018-04-15T22:01:14.407Z,18.20
2018-04-15T22:03:41.839Z,18.10
2018-04-15T22:06:09.295Z,18.10
2018-04-15T22:08:36.739Z,18.10
2018-04-15T22:11:04.186Z,18.10
2018-04-15T22:13:31.639Z,18.10
2018-04-15T22:15:59.071Z,18.00
2018-04-15T22:18:26.515Z,18.10
2018-04-15T22:20:54.714Z,18.10
2018-04-15T22:23:22.147Z,18.00
2018-04-15T22:25:49.595Z,18.10
2018-04-15T22:28:17.027Z,18.10
2018-04-15T22:30:44.479Z,18.10
2018-04-15T22:33:11.918Z,18.00
2018-04-15T22:35:39.371Z,18.00
2018-04-15T22:38:06.822Z,18.00
2018-04-15T22:40:34.271Z,18.00
2018-04-15T22:43:01.813Z,18.00
2018-04-15T22:45:29.242Z,18.00
2018-04-15T22:48:02.230Z,18.10
2018-04-15T22:50:35.351Z,18.00
2018-04-15T22:53:02.809Z,18.00
2018-04-15T22:55:30.241Z,18.00
2018-04-15T22:57:57.692Z,18.00
2018-04-15T23:00:25.118Z,18.00
2018-04-15T23:02:52.555Z,18.00
2018-04-15T23:05:20.009Z,18.00
2018-04-15T23:07:47.434Z,18.00
2018-04-15T23:10:14.878Z,17.90
2018-04-15T23:12:42.311Z,17.90
2018-04-15T23:15:09.758Z,17.90
2018-04-15T23:17:37.215Z,17.80
2018-04-15T23:20:04.654Z,17.80
2018-04-15T23:22:32.091Z,17.70
2018-04-15T23:24:59.534Z,17.70
2018-04-15T23:27:27.747Z,17.70
2018-04-15T23:29:55.195Z,17.60
2018-04-15T23:32:22.631Z,17.60
2018-04-15T23:34:50.075Z,17.50
2018-04-15T23:37:17.523Z,17.60
2018-04-15T23:39:44.980Z,17.50
2018-04-15T23:42:12.418Z,17.50
2018-04-15T23:44:39.854Z,17.50
2018-04-15T23:47:07.303Z,17.40
2018-04-15T23:49:34.813Z,17.30
2018-04-15T23:52:02.262Z,17.30
2018-04-15T23:54:29.690Z,17.40
2018-04-15T23:56:57.130Z,17.30
2018-04-15T23:59:24.563Z,17.30
